Time;durP1;ratioP1;P1;durP2;ratioP2;P2;SDS_P1;SDS_P2;PMS_P1;PMS_P2;Temp;Humidity;BMP_temperature;BMP_pressure;BME280_temperature;BME280_humidity;BME280_pressure;Samples;Min_cycle;Max_cycle;Signal;HPM_P1;HPM_P2
2020/12/07 00:00:43;;;;;;;55.15;31.50;;;;;;;10.22;60.70;98288.31;4950563;28;20035;-84
2020/12/07 00:03:13;;;;;;;55.47;31.13;;;;;;;10.37;60.10;98286.13;4958274;28;20067;-83
2020/12/07 00:05:39;;;;;;;57.30;32.92;;;;;;;9.95;61.52;98288.19;4942779;28;20047;-83
2020/12/07 00:08:06;;;;;;;59.78;31.92;;;;;;;10.25;60.61;98283.03;4936480;29;20034;-82
2020/12/07 00:10:32;;;;;;;52.40;30.63;;;;;;;9.83;61.73;98287.66;4954742;28;20062;-83
2020/12/07 00:12:58;;;;;;;52.88;31.23;;;;;;;9.58;62.47;98288.31;4955372;28;21492;-83
2020/12/07 00:15:25;;;;;;;57.75;31.83;;;;;;;9.15;64.96;98287.66;4970724;28;20198;-83
2020/12/07 00:17:52;;;;;;;55.15;31.48;;;;;;;9.67;62.95;98288.97;4936542;28;20039;-84
2020/12/07 00:20:19;;;;;;;54.45;31.52;;;;;;;9.25;64.60;98280.47;4934752;29;20035;-83
2020/12/07 00:22:46;;;;;;;54.13;31.80;;;;;;;9.52;63.75;98278.03;4955055;28;20529;-83
2020/12/07 00:25:12;;;;;;;51.38;30.67;;;;;;;9.44;63.73;98285.22;4970468;28;20054;-82
2020/12/07 00:27:39;;;;;;;53.35;31.98;;;;;;;9.69;62.94;98290.63;4943147;28;20038;-83
2020/12/07 00:30:06;;;;;;;54.50;33.20;;;;;;;9.46;63.58;98287.75;4943600;28;20178;-82
2020/12/07 00:32:33;;;;;;;56.42;31.23;;;;;;;9.42;63.66;98293.94;4950007;28;20845;-83
2020/12/07 00:34:59;;;;;;;51.13;29.85;;;;;;;9.91;62.53;98283.09;4954038;28;20054;-83
2020/12/07 00:37:25;;;;;;;50.08;30.25;;;;;;;9.90;62.32;98287.44;4943598;29;20102;-83
2020/12/07 00:39:51;;;;;;;58.00;31.40;;;;;;;9.97;62.24;98283.78;4937977;29;20126;-83
2020/12/07 00:42:17;;;;;;;52.20;30.90;;;;;;;10.09;61.83;98279.97;4950893;28;20070;-82
2020/12/07 00:44:43;;;;;;;52.00;29.73;;;;;;;10.01;61.77;98269.75;4955796;28;20035;-84
2020/12/07 00:47:10;;;;;;;49.50;26.65;;;;;;;9.91;61.78;98263.09;4942930;28;21722;-84
2020/12/07 00:49:38;;;;;;;50.72;26.65;;;;;;;9.69;61.72;98267.16;4946426;28;20443;-83
2020/12/07 00:52:04;;;;;;;48.80;26.83;;;;;;;9.35;62.23;98259.34;4936309;29;20059;-82
2020/12/07 00:54:30;;;;;;;45.75;26.98;;;;;;;9.27;62.17;98256.09;4954408;28;20038;-83
2020/12/07 00:56:57;;;;;;;49.92;25.98;;;;;;;9.32;61.57;98259.44;4961897;28;20054;-82
2020/12/07 00:59:23;;;;;;;50.42;27.08;;;;;;;9.25;61.58;98259.66;4963751;28;20050;-82
2020/12/07 01:01:50;;;;;;;55.10;28.50;;;;;;;9.11;61.66;98260.00;4971499;28;20061;-82
2020/12/07 01:04:16;;;;;;;48.17;26.85;;;;;;;9.37;61.39;98256.72;4961356;28;20073;-82
2020/12/07 01:06:45;;;;;;;51.85;29.83;;;;;;;9.46;61.63;98256.47;4957454;28;20121;-82
2020/12/07 01:09:13;;;;;;;69.38;32.22;;;;;;;9.14;62.99;98255.56;4954505;28;20150;-82
2020/12/07 01:11:43;;;;;;;61.95;32.47;;;;;;;9.14;63.36;98257.28;4953660;28;20380;-82
2020/12/07 01:14:13;;;;;;;105.22;34.83;;;;;;;8.96;63.94;98248.19;4954126;28;20047;-83
2020/12/07 01:16:40;;;;;;;67.55;35.22;;;;;;;9.33;62.76;98255.94;4952202;29;20557;-84
2020/12/07 01:19:07;;;;;;;69.00;35.25;;;;;;;9.31;62.70;98242.09;4970744;28;20042;-83
2020/12/07 01:21:34;;;;;;;63.90;34.15;;;;;;;9.50;62.41;98237.25;4944657;29;20117;-82
2020/12/07 01:24:00;;;;;;;91.95;34.67;;;;;;;9.24;62.66;98235.34;4956417;28;20184;-82
2020/12/07 01:26:26;;;;;;;69.72;36.65;;;;;;;9.54;62.16;98234.50;4935328;28;20138;-82
2020/12/07 01:28:52;;;;;;;80.95;34.42;;;;;;;9.23;63.33;98232.75;4955775;28;20085;-82
2020/12/07 01:31:18;;;;;;;64.32;34.45;;;;;;;9.48;62.51;98233.84;4966825;28;20054;-82
2020/12/07 01:33:45;;;;;;;66.18;35.88;;;;;;;9.44;62.37;98240.03;4942324;28;20035;-82
2020/12/07 01:36:11;;;;;;;89.32;36.10;;;;;;;9.54;61.88;98242.34;4964337;28;20028;-84
2020/12/07 01:38:36;;;;;;;64.97;32.75;;;;;;;9.35;61.77;98238.50;4939322;29;20343;-82
2020/12/07 01:41:02;;;;;;;60.83;32.03;;;;;;;9.20;62.11;98233.69;4952448;28;20039;-83
2020/12/07 01:43:28;;;;;;;64.40;31.23;;;;;;;9.18;62.39;98235.47;4956106;28;20607;-83
2020/12/07 01:45:55;;;;;;;91.47;31.55;;;;;;;9.14;62.18;98234.72;4961082;28;20088;-82
2020/12/07 01:48:21;;;;;;;111.30;31.60;;;;;;;9.11;62.47;98233.94;4957670;28;20055;-83
2020/12/07 01:50:46;;;;;;;60.00;32.55;;;;;;;9.37;61.64;98228.91;4953689;28;20047;-83
2020/12/07 01:53:12;;;;;;;62.13;31.38;;;;;;;9.15;62.03;98231.22;4942260;28;20039;-82
2020/12/07 01:55:39;;;;;;;60.45;31.13;;;;;;;9.24;61.65;98235.34;4953643;28;20220;-82
2020/12/07 01:58:05;;;;;;;67.78;31.92;;;;;;;9.04;61.94;98241.03;4969764;28;20179;-83
2020/12/07 02:00:30;;;;;;;60.85;30.33;;;;;;;9.15;62.07;98226.00;4938430;28;20059;-83
2020/12/07 02:02:57;;;;;;;71.05;32.08;;;;;;;8.97;62.83;98228.22;4938840;28;20090;-83
2020/12/07 02:05:24;;;;;;;384.40;39.42;;;;;;;8.64;63.88;98222.88;4952328;28;20825;-85
2020/12/07 02:08:08;;;;;;;71.38;32.28;;;;;;;8.72;63.68;98226.19;4938407;28;20402;-82
2020/12/07 02:10:33;;;;;;;96.38;32.22;;;;;;;8.74;63.36;98215.72;4955670;28;20043;-83
2020/12/07 02:12:59;;;;;;;127.35;32.13;;;;;;;9.02;62.40;98211.56;4954256;28;20048;-83
2020/12/07 02:15:25;;;;;;;64.60;32.35;;;;;;;8.94;62.59;98199.63;4953442;28;20050;-83
2020/12/07 02:17:51;;;;;;;60.95;30.67;;;;;;;8.96;62.86;98197.84;4953771;28;20133;-84
2020/12/07 02:20:17;;;;;;;151.00;36.03;;;;;;;9.05;62.22;98200.22;4954257;28;20094;-83
2020/12/07 02:22:43;;;;;;;157.30;35.33;;;;;;;8.92;62.54;98202.25;4949452;28;20112;-86
2020/12/07 02:25:09;;;;;;;111.45;30.33;;;;;;;8.73;62.94;98204.44;4936873;28;20035;-83
2020/12/07 02:27:34;;;;;;;293.15;35.05;;;;;;;8.52;63.82;98204.97;4946988;28;20035;-82
2020/12/07 02:30:00;;;;;;;67.72;33.33;;;;;;;8.70;63.55;98196.72;4949680;28;20080;-83
2020/12/07 02:32:26;;;;;;;609.72;44.78;;;;;;;7.73;66.50;98192.78;4936654;28;20068;-83
2020/12/07 02:34:52;;;;;;;678.90;46.25;;;;;;;7.58;67.56;98190.50;4956284;28;20024;-83
2020/12/07 02:37:17;;;;;;;293.75;36.45;;;;;;;8.27;65.12;98180.34;4934247;28;20475;-84
2020/12/07 02:39:43;;;;;;;64.22;28.92;;;;;;;8.39;64.56;98180.13;4934877;28;21241;-84
2020/12/07 02:42:10;;;;;;;78.90;27.05;;;;;;;8.40;63.96;98168.78;4954133;28;20027;-83
2020/12/07 02:44:36;;;;;;;56.72;29.00;;;;;;;8.54;63.92;98176.28;4954087;28;20110;-83
2020/12/07 02:47:02;;;;;;;66.68;31.15;;;;;;;8.59;64.10;98172.69;4952790;28;20032;-86
2020/12/07 02:49:29;;;;;;;82.40;32.40;;;;;;;8.66;63.92;98171.66;4934027;29;20062;-83
2020/12/07 02:51:55;;;;;;;177.43;33.10;;;;;;;8.52;64.43;98171.13;4945497;28;20546;-83
2020/12/07 02:54:20;;;;;;;102.75;30.00;;;;;;;8.60;64.47;98171.78;4933431;29;20122;-83
2020/12/07 02:56:46;;;;;;;171.98;28.80;;;;;;;8.57;64.36;98176.22;4948963;28;20126;-84
2020/12/07 02:59:12;;;;;;;50.10;25.70;;;;;;;8.96;62.91;98166.59;4965399;28;20031;-84
2020/12/07 03:01:38;;;;;;;51.15;25.25;;;;;;;8.99;62.57;98171.72;4937520;29;20121;-83
2020/12/07 03:04:03;;;;;;;58.38;26.90;;;;;;;8.95;62.64;98164.88;4933571;28;20141;-84
2020/12/07 03:06:30;;;;;;;173.70;32.08;;;;;;;8.62;62.76;98169.16;4948112;28;20031;-84
2020/12/07 03:08:55;;;;;;;66.75;28.13;;;;;;;8.61;63.19;98157.91;4961530;28;20138;-83
2020/12/07 03:11:22;;;;;;;63.42;30.00;;;;;;;8.91;62.83;98161.50;4933188;28;20062;-84
2020/12/07 03:13:47;;;;;;;66.90;29.70;;;;;;;8.93;62.99;98158.84;4932534;29;20141;-84
2020/12/07 03:16:14;;;;;;;66.45;28.08;;;;;;;8.96;62.80;98153.56;4951858;28;20450;-84
2020/12/07 03:18:39;;;;;;;64.57;29.10;;;;;;;9.02;62.65;98166.41;4946791;28;20030;-84
2020/12/07 03:21:05;;;;;;;65.03;28.75;;;;;;;8.88;63.14;98161.56;4946801;28;20036;-83
2020/12/07 03:23:31;;;;;;;65.32;30.40;;;;;;;9.04;62.53;98169.84;4945025;28;20035;-84
2020/12/07 03:25:57;;;;;;;154.15;30.20;;;;;;;8.81;63.06;98166.97;4945132;28;20039;-84
2020/12/07 03:28:23;;;;;;;121.95;29.52;;;;;;;9.04;62.27;98164.63;4934503;29;20124;-83
2020/12/07 03:30:48;;;;;;;56.80;26.58;;;;;;;9.11;62.28;98155.78;4954039;28;20134;-84
2020/12/07 03:33:14;;;;;;;62.63;27.10;;;;;;;9.06;61.93;98150.69;4949631;28;20066;-84
2020/12/07 03:35:39;;;;;;;177.13;27.92;;;;;;;8.54;63.67;98148.50;4963652;28;20027;-85
2020/12/07 03:38:05;;;;;;;65.65;26.00;;;;;;;8.85;62.92;98147.75;4942606;28;20042;-83
2020/12/07 03:40:34;;;;;;;95.95;24.15;;;;;;;8.46;63.29;98153.06;4950822;28;20035;-83
2020/12/07 03:43:01;;;;;;;52.13;23.25;;;;;;;8.83;62.56;98149.53;4939155;28;20036;-83
2020/12/07 03:45:37;;;;;;;50.53;21.10;;;;;;;8.73;62.18;98154.97;4941188;28;20032;-83
2020/12/07 03:48:03;;;;;;;40.70;19.90;;;;;;;8.83;62.26;98149.53;4944489;28;20028;-83
2020/12/07 03:50:29;;;;;;;172.30;22.13;;;;;;;8.43;63.08;98154.88;4927745;29;20028;-83
2020/12/07 03:52:55;;;;;;;70.88;22.83;;;;;;;8.74;62.36;98148.88;4932044;29;20068;-84
2020/12/07 03:55:21;;;;;;;44.40;19.70;;;;;;;8.81;62.08;98143.53;4947889;28;20115;-83
2020/12/07 03:57:47;;;;;;;49.08;21.67;;;;;;;8.82;62.19;98150.47;4962796;28;20048;-83
2020/12/07 04:00:13;;;;;;;51.50;22.15;;;;;;;8.90;62.11;98153.72;4961847;28;20099;-85
2020/12/07 04:02:38;;;;;;;57.75;20.42;;;;;;;8.47;63.25;98153.91;4964682;28;20032;-84
2020/12/07 04:05:13;;;;;;;46.65;22.58;;;;;;;8.60;63.00;98150.97;4935511;28;20462;-85
2020/12/07 04:07:39;;;;;;;93.40;22.83;;;;;;;8.52;62.88;98144.25;4951208;28;20031;-83
2020/12/07 04:10:04;;;;;;;45.95;21.27;;;;;;;8.61;62.22;98131.88;4946866;28;20042;-82
2020/12/07 04:12:33;;;;;;;51.67;21.50;;;;;;;8.66;62.45;98142.16;4946625;28;20111;-82
2020/12/07 04:14:59;;;;;;;53.40;21.95;;;;;;;8.54;62.87;98145.91;4949985;28;20051;-81
2020/12/07 04:17:24;;;;;;;192.27;24.00;;;;;;;8.28;63.23;98141.31;4962771;28;20126;-82
2020/12/07 04:19:50;;;;;;;48.90;21.25;;;;;;;8.70;62.22;98134.25;4950737;28;20483;-84
2020/12/07 04:22:17;;;;;;;43.40;20.02;;;;;;;8.90;61.67;98125.94;4931629;28;20511;-83
2020/12/07 04:24:42;;;;;;;48.45;21.08;;;;;;;8.72;61.52;98135.06;4933226;29;20027;-84
2020/12/07 04:27:08;;;;;;;43.17;19.52;;;;;;;8.77;62.02;98126.28;4951274;28;20043;-85
2020/12/07 04:29:33;;;;;;;53.90;23.48;;;;;;;8.95;61.86;98136.22;4930323;29;20036;-82
2020/12/07 04:31:59;;;;;;;47.95;21.17;;;;;;;8.91;61.20;98132.00;4949532;28;20045;-82
2020/12/07 04:34:25;;;;;;;46.13;19.52;;;;;;;8.95;60.93;98131.88;4929535;28;20828;-82
2020/12/07 04:36:54;;;;;;;48.67;22.52;;;;;;;8.79;61.49;98134.88;4943864;28;20039;-82
2020/12/07 04:39:20;;;;;;;52.17;22.05;;;;;;;8.59;62.10;98130.19;4973558;28;20035;-82
2020/12/07 04:41:46;;;;;;;47.70;21.15;;;;;;;8.68;61.64;98130.81;4969041;28;20042;-83
2020/12/07 04:44:11;;;;;;;44.85;20.65;;;;;;;8.93;61.17;98132.78;4961553;28;20127;-83
2020/12/07 04:46:38;;;;;;;48.55;21.88;;;;;;;8.62;61.38;98141.38;4967110;28;20079;-84
2020/12/07 04:49:04;;;;;;;44.85;21.90;;;;;;;8.95;60.53;98142.28;4939329;28;20074;-82
2020/12/07 04:51:32;;;;;;;41.42;19.48;;;;;;;8.92;60.80;98138.91;4975414;28;20027;-83
2020/12/07 04:54:00;;;;;;;41.83;21.23;;;;;;;8.87;61.29;98140.78;4951026;28;20070;-82
2020/12/07 04:56:27;;;;;;;43.70;20.95;;;;;;;8.52;61.93;98139.91;4950179;28;20070;-82
2020/12/07 04:58:54;;;;;;;42.53;21.05;;;;;;;8.64;61.28;98131.78;4950089;28;20367;-83
2020/12/07 05:01:20;;;;;;;38.70;19.88;;;;;;;8.77;61.14;98140.16;4949175;28;20047;-84
2020/12/07 05:03:47;;;;;;;42.95;20.90;;;;;;;8.50;61.88;98136.47;4952848;28;20039;-83
2020/12/07 05:06:18;;;;;;;44.35;21.42;;;;;;;8.02;62.83;98129.75;4933011;29;20411;-84
2020/12/07 05:08:44;;;;;;;46.13;21.70;;;;;;;8.22;62.15;98135.38;4934945;29;20089;-83
2020/12/07 05:11:10;;;;;;;38.78;19.58;;;;;;;8.15;62.34;98137.25;4950982;29;20024;-83
2020/12/07 05:13:43;;;;;;;41.67;21.63;;;;;;;8.39;61.86;98140.22;4947029;28;20522;-84
2020/12/07 05:16:09;;;;;;;36.95;19.00;;;;;;;8.31;61.92;98133.44;4931365;28;20505;-83
2020/12/07 05:18:38;;;;;;;41.35;20.90;;;;;;;8.69;60.88;98134.25;4937681;29;20035;-82
2020/12/07 05:21:05;;;;;;;46.22;21.58;;;;;;;8.30;62.13;98128.28;4948389;28;20027;-83
2020/12/07 05:23:40;;;;;;;46.22;21.88;;;;;;;8.59;61.16;98127.56;4942248;28;20126;-83
2020/12/07 05:26:09;;;;;;;39.42;20.20;;;;;;;8.62;61.67;98122.31;4945621;28;20032;-83
2020/12/07 05:28:41;;;;;;;42.05;22.10;;;;;;;8.91;60.73;98130.25;4967042;28;20347;-83
2020/12/07 05:31:07;;;;;;;39.13;20.05;;;;;;;9.06;60.36;98121.19;4916736;28;20051;-83
2020/12/07 05:33:33;;;;;;;40.55;21.17;;;;;;;8.97;60.77;98118.81;4933505;28;20261;-83
2020/12/07 05:35:58;;;;;;;42.47;20.65;;;;;;;9.00;60.67;98118.72;4934296;28;20026;-83
2020/12/07 05:38:35;;;;;;;43.47;21.80;;;;;;;8.72;61.38;98119.44;4954116;28;20028;-82
2020/12/07 05:41:03;;;;;;;51.25;22.67;;;;;;;8.41;62.08;98126.28;4951351;28;20040;-82
2020/12/07 05:43:30;;;;;;;52.65;23.35;;;;;;;8.85;60.93;98119.13;4939111;29;20471;-83
2020/12/07 05:46:00;;;;;;;48.03;23.00;;;;;;;9.03;60.22;98106.47;4952565;28;21366;-83
2020/12/07 05:48:32;;;;;;;49.72;21.70;;;;;;;8.61;61.31;98115.38;4947079;28;20034;-83
2020/12/07 05:51:04;;;;;;;28.08;14.40;;;;;;;7.99;61.81;98114.22;4955279;28;20031;-82
2020/12/07 05:53:35;;;;;;;29.30;15.35;;;;;;;8.52;61.02;98113.00;4953789;28;20062;-83
2020/12/07 05:56:05;;;;;;;28.45;15.90;;;;;;;8.75;60.07;98105.47;4964330;28;20031;-84
2020/12/07 05:58:39;;;;;;;28.70;15.95;;;;;;;8.64;60.36;98097.94;4950397;28;20085;-83
2020/12/07 06:01:06;;;;;;;30.08;17.25;;;;;;;8.63;60.60;98101.44;4949829;28;20073;-83
2020/12/07 06:03:34;;;;;;;37.25;18.17;;;;;;;8.79;60.03;98103.66;4953906;28;20623;-84
2020/12/07 06:05:59;;;;;;;28.08;15.95;;;;;;;8.85;59.88;98095.69;4967868;28;20046;-83
2020/12/07 06:08:34;;;;;;;28.73;15.25;;;;;;;8.25;61.04;98091.91;4956426;28;20031;-84
2020/12/07 06:11:11;;;;;;;25.52;14.48;;;;;;;8.57;60.29;98088.59;4947805;28;20061;-84
2020/12/07 06:13:38;;;;;;;25.48;14.95;;;;;;;7.52;63.18;98092.72;4964660;28;20193;-83
2020/12/07 06:16:05;;;;;;;24.90;15.45;;;;;;;8.19;61.53;98088.63;4948397;28;20042;-83
2020/12/07 06:18:34;;;;;;;32.28;19.15;;;;;;;8.39;60.90;98081.25;4933985;29;20157;-84
2020/12/07 06:21:14;;;;;;;29.40;17.27;;;;;;;8.72;60.15;98075.19;4965537;28;20035;-83
2020/12/07 06:23:41;;;;;;;23.15;14.63;;;;;;;7.45;62.94;98067.75;4939795;28;20269;-84
2020/12/07 06:26:09;;;;;;;25.52;16.20;;;;;;;7.98;61.62;98073.50;4936191;29;20055;-84
2020/12/07 06:28:37;;;;;;;27.38;16.30;;;;;;;8.00;62.16;98072.59;4955184;28;20042;-83
2020/12/07 06:31:04;;;;;;;31.95;16.77;;;;;;;7.70;62.47;98066.34;4937816;28;20474;-82
2020/12/07 06:33:37;;;;;;;29.65;17.02;;;;;;;8.01;61.60;98076.88;4934688;29;20073;-82
2020/12/07 06:36:02;;;;;;;;;;;;;;;8.48;60.78;98072.34;4948616;28;20133;-83
2020/12/07 06:38:40;;;;;;;26.33;15.43;;;;;;;8.15;61.55;98066.19;4951331;28;20010;-83
2020/12/07 06:41:06;;;;;;;32.72;17.58;;;;;;;8.45;60.81;98070.66;4967252;28;20023;-82
2020/12/07 06:43:33;;;;;;;29.13;17.75;;;;;;;8.19;60.91;98071.28;4932418;29;20039;-83
2020/12/07 06:45:59;;;;;;;26.92;17.92;;;;;;;8.45;60.28;98075.88;4951229;28;20054;-83
2020/12/07 06:48:26;;;;;;;29.80;18.40;;;;;;;8.37;60.59;98069.16;4942042;28;20406;-82
2020/12/07 06:50:55;;;;;;;24.90;15.15;;;;;;;8.47;60.02;98063.69;4934917;28;20039;-83
2020/12/07 06:55:53;;;;;;;17.88;12.48;;;;;;;8.56;59.22;98068.66;4950985;28;20035;-84
2020/12/07 06:58:30;;;;;;;18.15;12.25;;;;;;;8.61;58.59;98061.59;4947878;28;20183;-83
2020/12/07 07:01:05;;;;;;;18.08;11.88;;;;;;;8.75;58.55;98062.06;4937079;29;20032;-84
2020/12/07 07:03:31;;;;;;;20.70;12.90;;;;;;;8.85;58.42;98054.03;4934383;28;20050;-83
2020/12/07 07:05:56;;;;;;;16.77;11.13;;;;;;;8.93;58.41;98063.34;4958136;28;20087;-83
2020/12/07 07:08:22;;;;;;;18.77;12.38;;;;;;;8.82;58.38;98061.94;4948361;28;21574;-84
2020/12/07 07:10:48;;;;;;;18.45;12.07;;;;;;;8.97;58.28;98054.53;4952273;28;20458;-83
2020/12/07 07:13:14;;;;;;;16.80;11.70;;;;;;;8.75;58.54;98067.28;4934682;29;20031;-84
2020/12/07 07:15:43;;;;;;;17.95;12.13;;;;;;;9.07;58.25;98060.34;4932978;28;20035;-81
2020/12/07 07:18:11;;;;;;;21.88;13.07;;;;;;;8.97;58.66;98066.72;4949567;28;20042;-83
2020/12/07 07:20:37;;;;;;;20.75;13.20;;;;;;;8.90;58.89;98070.38;4949038;28;20102;-82
2020/12/07 07:23:03;;;;;;;20.48;14.65;;;;;;;8.96;58.52;98068.47;4937045;28;20102;-81
2020/12/07 07:25:43;;;;;;;23.73;14.75;;;;;;;8.96;58.36;98068.47;4938246;28;20028;-79
2020/12/07 07:28:10;;;;;;;20.73;14.23;;;;;;;9.03;58.23;98070.00;4921621;28;20109;-79
2020/12/07 07:30:36;;;;;;;23.20;14.75;;;;;;;9.11;58.17;98069.81;4949520;28;20036;-79
2020/12/07 07:33:05;;;;;;;24.35;17.05;;;;;;;8.70;58.99;98069.16;4950206;28;20443;-80
2020/12/07 07:35:32;;;;;;;20.70;13.18;;;;;;;8.88;58.36;98060.00;4960173;28;20126;-79
2020/12/07 07:37:58;;;;;;;20.42;14.75;;;;;;;9.07;58.10;98056.00;4954058;28;20051;-80
2020/12/07 07:40:27;;;;;;;21.05;15.40;;;;;;;9.12;58.06;98061.94;4946008;28;20438;-79
2020/12/07 07:43:08;;;;;;;24.67;15.55;;;;;;;9.03;57.89;98061.34;4933021;29;20031;-77
2020/12/07 07:45:39;;;;;;;23.53;16.13;;;;;;;8.81;58.77;98065.41;4953164;28;20541;-80
2020/12/07 07:54:24;;;;;;;23.27;16.02;;;;;;;8.80;59.43;98061.97;4932130;29;20408;-79
2020/12/07 08:15:54;;;;;;;25.40;17.42;;;;;;;9.19;57.75;98050.47;4925830;29;20060;-80
2020/12/07 08:18:35;;;;;;;23.15;15.77;;;;;;;9.08;57.99;98046.44;4916199;29;20040;-79
2020/12/07 08:21:01;;;;;;;25.50;17.17;;;;;;;9.10;58.09;98045.50;4896989;29;20035;-79
2020/12/07 08:23:32;;;;;;;25.70;17.38;;;;;;;9.10;57.97;98045.50;4915073;29;20040;-79
2020/12/07 08:26:00;;;;;;;24.33;16.60;;;;;;;8.82;58.48;98041.09;4914121;29;20063;-78
2020/12/07 08:28:37;;;;;;;24.70;15.05;;;;;;;8.89;57.89;98045.22;4901997;29;20032;-79
2020/12/07 08:31:18;;;;;;;25.58;16.80;;;;;;;8.69;58.95;98046.63;4945335;28;20138;-78
2020/12/07 08:33:58;;;;;;;26.13;17.05;;;;;;;8.45;59.87;98046.38;4960046;28;20086;-80
2020/12/07 08:36:25;;;;;;;24.42;16.45;;;;;;;8.18;60.05;98040.94;4935703;29;20042;-79
2020/12/07 08:38:51;;;;;;;27.85;17.45;;;;;;;8.32;59.81;98053.66;4936750;29;20440;-77
2020/12/07 08:41:21;;;;;;;29.67;18.05;;;;;;;7.97;61.41;98056.19;4935056;29;20058;-79
2020/12/07 08:43:58;;;;;;;26.52;18.25;;;;;;;7.77;61.49;98052.31;4942502;29;20154;-78
2020/12/07 08:46:26;;;;;;;30.77;17.80;;;;;;;8.20;60.23;98053.94;4952707;28;20073;-79
2020/12/07 08:48:53;;;;;;;31.15;19.83;;;;;;;8.19;60.68;98054.81;4963718;28;20045;-79
2020/12/07 08:51:25;;;;;;;29.50;17.67;;;;;;;7.89;61.38;98061.59;4967373;28;20031;-79
2020/12/07 08:53:52;;;;;;;34.92;18.70;;;;;;;8.20;60.49;98049.56;4938437;28;20031;-79
2020/12/07 08:56:18;;;;;;;32.97;18.90;;;;;;;8.31;60.17;98051.94;4933862;28;20048;-78
2020/12/07 08:58:44;;;;;;;34.88;19.27;;;;;;;8.45;59.55;98057.66;4956027;28;20035;-80
2020/12/07 09:01:12;;;;;;;31.92;18.77;;;;;;;8.31;60.57;98057.13;4954259;28;20365;-79
2020/12/07 09:03:42;;;;;;;33.35;19.63;;;;;;;8.51;60.07;98060.09;4953852;28;20109;-78
2020/12/07 09:06:08;;;;;;;33.65;19.35;;;;;;;8.68;59.47;98057.09;4928461;29;20045;-80
2020/12/07 09:08:35;;;;;;;34.75;20.92;;;;;;;8.69;59.64;98059.63;4934845;29;20139;-81
2020/12/07 09:11:09;;;;;;;31.50;18.33;;;;;;;8.91;59.00;98056.47;4950550;28;20455;-78
2020/12/07 09:13:35;;;;;;;33.30;19.40;;;;;;;8.69;59.89;98058.78;4953841;28;20039;-81
2020/12/07 09:16:02;;;;;;;34.45;20.00;;;;;;;8.56;59.97;98057.38;4960328;28;20047;-81
2020/12/07 09:18:27;;;;;;;25.77;15.95;;;;;;;8.00;60.48;98061.34;4948760;28;20043;-78
2020/12/07 09:20:54;;;;;;;27.92;15.65;;;;;;;8.27;59.61;98058.94;4964876;28;20038;-79
2020/12/07 09:23:20;;;;;;;25.42;16.83;;;;;;;8.46;59.21;98067.16;4933780;29;20040;-77
2020/12/07 09:25:49;;;;;;;23.35;15.32;;;;;;;8.66;58.84;98067.53;4947551;28;20158;-81
2020/12/07 09:28:15;;;;;;;27.65;17.20;;;;;;;8.76;58.91;98073.34;4943412;28;20047;-79
2020/12/07 09:30:44;;;;;;;27.10;16.15;;;;;;;8.15;59.30;98071.38;4951305;28;20040;-79
2020/12/07 09:33:11;;;;;;;26.60;16.52;;;;;;;8.42;59.00;98064.69;4938463;29;20034;-78
2020/12/07 09:35:39;;;;;;;25.00;15.32;;;;;;;8.64;58.05;98058.88;4949718;29;20050;-78
2020/12/07 09:38:05;;;;;;;27.10;17.35;;;;;;;8.79;57.74;98060.25;4936619;28;20463;-79
2020/12/07 09:40:32;;;;;;;26.33;17.15;;;;;;;8.97;57.58;98057.13;4938156;29;20045;-78
2020/12/07 09:42:58;;;;;;;27.60;17.30;;;;;;;9.02;58.09;98057.88;4943224;28;20518;-79
2020/12/07 09:45:25;;;;;;;26.70;16.85;;;;;;;9.07;57.99;98056.00;4950631;28;20035;-79
2020/12/07 09:47:50;;;;;;;27.75;16.60;;;;;;;9.23;57.34;98056.44;4947106;28;20062;-80
2020/12/07 09:50:16;;;;;;;24.88;16.55;;;;;;;9.23;57.23;98056.44;4955943;28;20042;-79
2020/12/07 09:52:42;;;;;;;26.08;16.80;;;;;;;9.34;57.12;98054.38;4950311;28;20057;-80
2020/12/07 09:55:07;;;;;;;25.60;17.02;;;;;;;9.24;57.44;98049.47;4945148;28;20037;-79
2020/12/07 09:57:33;;;;;;;27.17;16.20;;;;;;;9.25;57.64;98045.97;4949683;28;20500;-78
2020/12/07 09:59:59;;;;;;;26.98;17.20;;;;;;;9.79;56.57;98051.28;4915648;29;20050;-80
2020/12/07 10:02:25;;;;;;;30.13;18.42;;;;;;;9.87;56.16;98052.78;4940035;28;20039;-79
2020/12/07 10:04:50;;;;;;;26.88;16.75;;;;;;;10.45;55.06;98053.56;4950263;28;20034;-80
2020/12/07 10:07:17;;;;;;;25.05;15.73;;;;;;;10.55;53.96;98052.34;4963640;28;20046;-79
2020/12/07 10:09:43;;;;;;;24.05;15.63;;;;;;;9.78;56.09;98053.06;4952363;28;20026;-80
2020/12/07 10:12:08;;;;;;;25.77;16.80;;;;;;;9.81;55.97;98052.13;4942015;29;20516;-80
2020/12/07 10:14:34;;;;;;;26.63;15.32;;;;;;;9.63;56.59;98048.31;4940039;29;20821;-78
2020/12/07 10:17:00;;;;;;;24.83;14.70;;;;;;;9.38;56.13;98053.41;4971489;28;20088;-78
2020/12/07 10:19:26;;;;;;;23.42;15.48;;;;;;;9.94;54.73;98048.22;4936597;28;20036;-80
2020/12/07 10:21:53;;;;;;;26.63;15.30;;;;;;;9.95;54.40;98049.94;4949305;28;20078;-79
2020/12/07 10:24:19;;;;;;;27.95;15.45;;;;;;;9.74;54.98;98059.25;4935310;28;20473;-80
2020/12/07 10:26:45;;;;;;;22.27;14.25;;;;;;;10.13;54.11;98057.19;4930182;28;20057;-80
2020/12/07 10:29:10;;;;;;;21.40;14.73;;;;;;;10.39;52.85;98054.63;4946155;28;20118;-80
2020/12/07 10:31:36;;;;;;;26.20;14.73;;;;;;;10.03;53.96;98060.97;4935515;28;20069;-79
2020/12/07 10:34:01;;;;;;;23.63;14.73;;;;;;;10.33;53.07;98044.38;4962861;28;20517;-79
2020/12/07 10:36:27;;;;;;;23.55;15.23;;;;;;;10.56;52.72;98037.53;4946734;28;20042;-79
2020/12/07 10:38:53;;;;;;;22.67;15.38;;;;;;;10.30;52.56;98036.66;4955731;28;20208;-80
2020/12/07 10:41:26;;;;;;;27.60;16.58;;;;;;;9.62;53.97;98038.78;4957484;28;20042;-80
2020/12/07 10:43:51;;;;;;;27.35;17.17;;;;;;;9.77;54.28;98032.25;4933522;28;20937;-81
2020/12/07 10:46:17;;;;;;;29.38;17.95;;;;;;;10.39;53.26;98033.75;4968323;28;20042;-81
2020/12/07 10:48:43;;;;;;;29.48;18.05;;;;;;;10.49;52.50;98027.31;4940106;29;20050;-81
2020/12/07 10:51:13;;;;;;;26.85;17.58;;;;;;;10.89;51.07;98025.91;4937315;28;20058;-81
2020/12/07 10:53:39;;;;;;;30.83;17.77;;;;;;;10.85;52.28;98017.34;4950600;28;20035;-81
2020/12/07 10:56:10;;;;;;;28.67;18.73;;;;;;;11.25;50.76;98019.38;4935584;28;20038;-80
2020/12/07 10:58:39;;;;;;;28.45;17.38;;;;;;;10.19;53.28;98030.94;4966588;28;20113;-80
2020/12/07 11:01:05;;;;;;;30.65;17.48;;;;;;;10.22;53.63;98023.00;4966783;28;20075;-81
2020/12/07 11:03:32;;;;;;;30.02;16.42;;;;;;;9.71;53.89;98017.63;4964047;28;20040;-77
2020/12/07 11:05:59;;;;;;;28.85;17.63;;;;;;;10.09;54.80;98019.03;4931964;29;20038;-79
2020/12/07 11:08:38;;;;;;;28.88;16.65;;;;;;;9.62;53.94;98005.75;4933902;29;20388;-78
2020/12/07 11:11:07;;;;;;;27.25;15.85;;;;;;;9.54;54.15;98015.53;4970195;28;20122;-78
2020/12/07 11:13:33;;;;;;;22.38;13.40;;;;;;;9.59;54.37;98016.25;4944727;28;20039;-79
2020/12/07 11:16:04;;;;;;;29.33;15.98;;;;;;;10.03;53.71;98009.66;4929716;29;20035;-78
2020/12/07 11:18:31;;;;;;;28.98;15.95;;;;;;;10.55;52.11;97994.91;4936149;29;20036;-80
2020/12/07 11:20:57;;;;;;;27.20;15.55;;;;;;;10.81;51.29;97991.38;4933327;28;20047;-80
2020/12/07 11:23:23;;;;;;;28.77;15.70;;;;;;;10.91;51.33;97990.16;4950217;28;20089;-81
2020/12/07 11:25:50;;;;;;;25.30;15.65;;;;;;;10.89;51.05;97971.91;4931947;28;20065;-81
2020/12/07 11:28:16;;;;;;;23.30;14.60;;;;;;;10.98;50.40;97986.44;4934849;28;20446;-80
2020/12/07 11:30:42;;;;;;;27.38;16.15;;;;;;;10.46;51.21;97980.41;4950941;28;20131;-81
2020/12/07 11:33:08;;;;;;;28.88;16.92;;;;;;;10.50;52.19;97968.94;4936198;28;20557;-81
2020/12/07 11:35:34;;;;;;;26.95;16.42;;;;;;;10.76;50.79;97965.44;4947967;28;20043;-80
2020/12/07 11:38:08;;;;;;;26.30;15.63;;;;;;;10.60;51.46;97958.22;4942922;28;20055;-80
2020/12/07 11:43:20;;;;;;;29.50;16.00;;;;;;;10.40;52.43;97951.94;4945891;28;20166;-79
2020/12/07 11:45:46;;;;;;;27.95;14.85;;;;;;;10.85;51.29;97954.66;4943781;28;20046;-81
2020/12/07 11:48:12;;;;;;;29.17;17.27;;;;;;;10.62;50.98;97953.78;4933250;28;20447;-81
2020/12/07 11:50:38;;;;;;;24.65;15.35;;;;;;;10.27;51.90;97949.75;4968475;28;20141;-81
2020/12/07 11:53:04;;;;;;;24.67;15.10;;;;;;;11.38;50.48;97954.41;4949844;28;20559;-80
2020/12/07 11:55:31;;;;;;;24.05;14.45;;;;;;;12.76;46.36;97945.25;4948635;28;20162;-82